createdAt,value
2022-10-12T00:01:11.028Z,4.03
2022-10-12T00:03:37.709Z,3.77
2022-10-12T00:06:11.684Z,3.53
2022-10-12T00:11:31.314Z,3.50
2022-10-12T00:13:58.703Z,4.10
2022-10-12T00:16:26.164Z,3.57
2022-10-12T00:18:54.112Z,3.60
2022-10-12T00:23:48.169Z,3.30
2022-10-12T00:26:17.654Z,3.20
2022-10-12T00:31:17.292Z,3.33
2022-10-12T00:38:46.483Z,3.03
2022-10-12T00:46:28.135Z,3.77
2022-10-12T00:49:08.848Z,3.70
2022-10-12T01:06:57.118Z,3.90
2022-10-12T01:11:58.112Z,3.93
2022-10-12T01:14:25.846Z,4.00
2022-10-12T01:23:17.144Z,3.30
2022-10-12T01:37:47.499Z,3.50
2022-10-12T01:42:57.019Z,4.07
2022-10-12T01:47:57.469Z,3.10
2022-10-12T01:53:37.808Z,3.40
2022-10-12T01:56:26.263Z,3.73
2022-10-12T02:04:19.511Z,3.53
2022-10-12T02:09:26.089Z,3.17
2022-10-12T02:22:08.526Z,3.43
2022-10-12T02:24:38.344Z,3.13
2022-10-12T02:27:07.167Z,2.83
2022-10-12T02:37:38.681Z,2.90
2022-10-12T02:43:09.282Z,3.00
2022-10-12T02:45:38.421Z,2.90
2022-10-12T02:48:07.439Z,3.57
2022-10-12T02:53:07.363Z,2.73
2022-10-12T03:00:37.022Z,3.23
2022-10-12T03:17:58.067Z,3.63
2022-10-12T03:22:56.398Z,2.70
2022-10-12T03:50:18.384Z,3.67
2022-10-12T03:55:16.540Z,2.93
2022-10-12T04:02:37.043Z,3.20
2022-10-12T04:07:35.919Z,3.60
2022-10-12T04:22:36.137Z,2.87
2022-10-12T04:32:27.468Z,2.83
2022-10-12T04:37:27.587Z,2.30
2022-10-12T04:42:25.829Z,2.97
2022-10-12T05:41:55.796Z,4.13
2022-10-12T05:49:25.831Z,3.40
2022-10-12T05:59:26.731Z,2.87
2022-10-12T06:06:56.151Z,2.90
2022-10-12T06:14:25.979Z,2.63
2022-10-12T06:21:55.439Z,2.57
2022-10-12T06:24:21.966Z,2.80
2022-10-12T06:26:48.503Z,3.20
2022-10-12T06:31:51.450Z,3.20
2022-10-12T06:34:18.676Z,2.77
2022-10-12T06:39:11.842Z,2.90
2022-10-12T06:41:38.910Z,3.33
2022-10-12T06:46:37.015Z,3.60
2022-10-12T06:54:06.650Z,3.70
2022-10-12T06:59:05.854Z,4.13
2022-10-12T07:06:30.567Z,3.50
2022-10-12T07:08:57.807Z,3.90
2022-10-12T07:13:57.556Z,3.53
2022-10-12T07:18:55.767Z,3.67
2022-10-12T07:26:26.197Z,3.67
2022-10-12T07:33:55.939Z,3.57
2022-10-12T07:36:23.637Z,3.27
2022-10-12T07:38:51.275Z,3.80
2022-10-12T07:41:18.003Z,4.40
2022-10-12T07:43:44.544Z,4.00
2022-10-12T07:46:11.786Z,3.80
2022-10-12T07:48:40.114Z,3.80
2022-10-12T07:51:08.955Z,3.73
2022-10-12T07:53:37.299Z,3.83
2022-10-12T07:56:06.862Z,3.87
2022-10-12T07:58:33.423Z,4.13
2022-10-12T08:01:07.581Z,4.73
2022-10-12T08:06:10.909Z,4.30
2022-10-12T08:08:37.867Z,3.77
2022-10-12T08:13:37.623Z,3.53
2022-10-12T08:16:08.384Z,3.93
2022-10-12T08:21:12.041Z,4.50
2022-10-12T08:23:39.107Z,4.10
2022-10-12T08:26:06.754Z,3.37
2022-10-12T08:28:34.165Z,3.43
2022-10-12T08:31:00.732Z,4.00
2022-10-12T08:33:29.879Z,3.60
2022-10-12T08:35:56.423Z,4.43
2022-10-12T08:38:22.935Z,4.50
2022-10-12T08:40:58.513Z,3.70
2022-10-12T08:43:42.699Z,5.03
2022-10-12T08:46:10.530Z,4.40
2022-10-12T08:48:42.861Z,4.80
2022-10-12T08:54:00.401Z,4.93
2022-10-12T08:56:27.199Z,4.50
2022-10-12T09:01:38.487Z,4.47
2022-10-12T09:04:13.766Z,4.20
2022-10-12T09:12:18.560Z,3.87
2022-10-12T09:14:47.648Z,5.07
2022-10-12T09:17:30.005Z,4.17
2022-10-12T09:22:37.527Z,3.70
2022-10-12T09:25:11.636Z,3.97
2022-10-12T09:27:42.993Z,5.17
2022-10-12T09:30:17.710Z,4.00
2022-10-12T09:33:09.626Z,4.73
2022-10-12T09:35:36.893Z,4.60
2022-10-12T09:43:07.731Z,5.03
2022-10-12T09:48:18.803Z,4.70
2022-10-12T09:50:56.015Z,4.23
2022-10-12T09:53:31.483Z,3.60
2022-10-12T09:56:10.633Z,4.00
2022-10-12T09:58:51.234Z,3.80
2022-10-12T10:01:29.858Z,4.17
2022-10-12T10:06:46.605Z,4.00
2022-10-12T10:09:27.119Z,4.10
2022-10-12T10:16:59.527Z,4.10
2022-10-12T10:19:26.418Z,3.47
2022-10-12T10:24:29.002Z,4.60
2022-10-12T10:26:59.661Z,4.47
2022-10-12T10:29:40.623Z,3.77
2022-10-12T10:32:14.108Z,4.00
2022-10-12T10:34:43.840Z,4.30
2022-10-12T10:37:18.347Z,3.90
2022-10-12T11:01:54.439Z,4.07
2022-10-12T11:04:31.325Z,4.30
2022-10-12T11:09:46.204Z,4.37
2022-10-12T11:15:46.278Z,4.10
2022-10-12T11:31:53.331Z,4.73
2022-10-12T11:37:18.097Z,3.73
2022-10-12T11:39:47.922Z,4.13
2022-10-12T11:42:28.323Z,3.80
2022-10-12T11:44:56.398Z,3.97
2022-10-12T11:47:45.174Z,4.30
2022-10-12T11:50:35.604Z,3.33
2022-10-12T11:58:59.965Z,4.30
2022-10-12T12:01:54.651Z,4.33
2022-10-12T12:04:42.095Z,4.70
2022-10-12T12:07:44.911Z,4.53
2022-10-12T12:13:21.126Z,3.80
2022-10-12T12:15:47.655Z,4.20
2022-10-12T12:18:19.713Z,4.60
2022-10-12T12:20:49.235Z,4.20
2022-10-12T12:28:42.876Z,4.57
2022-10-12T12:31:17.444Z,3.97
2022-10-12T12:33:47.930Z,4.17
2022-10-12T12:39:19.697Z,4.73
2022-10-12T12:44:43.265Z,4.63
2022-10-12T12:50:00.615Z,5.70
2022-10-12T12:52:32.978Z,6.13
2022-10-12T12:58:19.427Z,6.80
2022-10-12T13:01:10.577Z,6.57
2022-10-12T13:04:22.094Z,7.57
2022-10-12T13:07:09.912Z,7.70
2022-10-12T13:17:09.677Z,9.47
2022-10-12T13:19:15.782Z,10.07
2022-10-12T13:21:48.933Z,9.10
2022-10-12T13:24:22.114Z,9.87
2022-10-12T13:26:52.372Z,10.17
2022-10-12T13:29:28.902Z,10.83
2022-10-12T13:32:00.468Z,11.70
2022-10-12T13:34:41.407Z,10.87
2022-10-12T13:39:47.337Z,12.70
2022-10-12T13:42:17.975Z,12.23
2022-10-12T13:44:46.753Z,11.70
2022-10-12T13:47:31.445Z,11.80
2022-10-12T13:49:58.567Z,11.70
2022-10-12T13:52:32.379Z,10.67
2022-10-12T13:55:00.399Z,10.03
2022-10-12T14:55:36.134Z,7.47
2022-10-12T14:58:07.907Z,7.30
2022-10-12T15:00:36.269Z,7.50
2022-10-12T15:03:04.461Z,6.40
2022-10-12T15:05:33.200Z,7.23
2022-10-12T15:08:00.824Z,6.53
2022-10-12T15:10:28.444Z,6.37
2022-10-12T15:12:55.179Z,7.40
2022-10-12T15:15:40.611Z,6.87
2022-10-12T15:18:07.250Z,6.57
2022-10-12T15:20:35.091Z,6.60
2022-10-12T15:23:02.873Z,6.90
2022-10-12T15:25:35.235Z,6.30
2022-10-12T15:28:02.906Z,6.67
2022-10-12T15:30:29.501Z,6.43
2022-10-12T15:32:56.011Z,6.47
2022-10-12T15:35:25.070Z,5.93
2022-10-12T15:37:52.051Z,5.53
2022-10-12T15:40:20.812Z,5.90
2022-10-12T15:42:47.583Z,6.40
2022-10-12T15:45:18.845Z,6.23
2022-10-12T15:47:47.314Z,6.13
2022-10-12T15:50:15.241Z,6.50
2022-10-12T15:52:41.842Z,6.83
2022-10-12T15:55:34.680Z,5.77
2022-10-12T15:58:01.445Z,5.90
2022-10-12T16:00:29.390Z,6.40
2022-10-12T16:05:36.773Z,6.93
2022-10-12T16:08:07.008Z,6.40
2022-10-12T16:10:39.503Z,6.00
2022-10-12T16:13:08.519Z,5.63
2022-10-12T16:15:36.149Z,5.37
2022-10-12T17:11:22.886Z,5.90
2022-10-12T17:13:49.611Z,6.23
2022-10-12T17:16:36.324Z,5.67
2022-10-12T17:19:03.458Z,5.57
2022-10-12T17:21:30.044Z,6.60
2022-10-12T17:23:58.278Z,5.57
2022-10-12T17:26:24.890Z,5.00
2022-10-12T17:28:51.490Z,6.37
2022-10-12T17:31:18.467Z,5.77
2022-10-12T17:33:44.975Z,5.20
2022-10-12T17:36:13.161Z,6.57
2022-10-12T17:38:39.754Z,6.07
2022-10-12T17:43:38.190Z,6.17
2022-10-12T17:46:05.902Z,4.90
2022-10-12T17:48:32.819Z,6.20
2022-10-12T17:51:04.098Z,5.53
2022-10-12T17:53:32.275Z,5.97
2022-10-12T17:56:03.144Z,4.73
2022-10-12T17:58:30.446Z,5.40
2022-10-12T18:00:57.546Z,4.90
2022-10-12T18:03:26.206Z,5.83
2022-10-12T18:05:52.818Z,5.40
2022-10-12T18:08:19.494Z,5.87
2022-10-12T18:10:46.091Z,5.47
2022-10-12T18:13:12.680Z,6.17
2022-10-12T18:15:43.590Z,6.73
2022-10-12T18:18:15.024Z,6.47
2022-10-12T18:20:42.196Z,6.30
2022-10-12T18:23:08.763Z,6.63
2022-10-12T18:25:40.035Z,6.70
2022-10-12T18:28:08.405Z,6.90
2022-10-12T18:30:35.856Z,6.67
2022-10-12T18:33:02.595Z,7.00
2022-10-12T18:35:30.351Z,7.07
2022-10-12T18:37:56.872Z,7.43
2022-10-12T18:40:23.461Z,7.37
2022-10-12T18:42:49.991Z,7.17
2022-10-12T18:45:16.710Z,7.10
2022-10-12T18:47:43.313Z,7.20
2022-10-12T18:50:10.007Z,6.80
2022-10-12T18:52:36.603Z,7.00
2022-10-12T18:55:03.254Z,7.83
2022-10-12T18:57:32.094Z,6.33
2022-10-12T18:59:59.306Z,7.77
2022-10-12T19:02:25.851Z,7.33
2022-10-12T19:04:52.651Z,7.33
2022-10-12T19:07:19.340Z,8.13
2022-10-12T19:09:45.857Z,7.60
2022-10-12T19:14:48.310Z,8.83
2022-10-12T19:17:15.843Z,7.47
2022-10-12T19:19:42.556Z,9.00
2022-10-12T19:22:09.131Z,7.33
2022-10-12T19:27:07.346Z,8.77
2022-10-12T19:29:33.942Z,8.57
2022-10-12T19:32:00.511Z,8.43
2022-10-12T19:34:27.207Z,8.47
2022-10-12T19:36:53.808Z,8.33
2022-10-12T19:39:23.050Z,8.87
2022-10-12T19:41:50.964Z,8.40
2022-10-12T19:44:19.161Z,7.97
2022-10-12T19:46:48.394Z,8.50
2022-10-12T19:49:16.810Z,8.27
2022-10-12T19:51:44.379Z,7.83
2022-10-12T19:54:13.581Z,8.80
2022-10-12T19:56:40.179Z,8.67
2022-10-12T19:59:06.979Z,7.93
2022-10-12T20:04:09.829Z,7.40
2022-10-12T20:06:37.475Z,8.50
2022-10-12T20:11:38.239Z,7.90
2022-10-12T20:14:05.272Z,8.23
2022-10-12T20:16:34.972Z,7.70
2022-10-12T20:19:02.506Z,7.67
2022-10-12T20:21:29.077Z,7.57
2022-10-12T20:26:27.789Z,7.73
2022-10-12T20:28:55.063Z,7.80
2022-10-12T20:31:23.758Z,8.00
2022-10-12T20:33:52.704Z,7.40
2022-10-12T20:38:58.495Z,8.20
2022-10-12T20:43:59.114Z,7.33
2022-10-12T20:46:26.926Z,8.23
2022-10-12T20:48:58.642Z,8.10
2022-10-12T20:51:28.668Z,7.17
2022-10-12T20:53:58.738Z,7.87
2022-10-12T20:58:57.590Z,7.83
2022-10-12T21:03:53.490Z,7.53
2022-10-12T21:06:21.430Z,7.23
2022-10-12T21:11:27.478Z,7.43
2022-10-12T21:13:54.976Z,9.00
2022-10-12T21:16:21.506Z,7.70
2022-10-12T21:18:48.298Z,7.40
2022-10-12T21:21:17.392Z,7.43
2022-10-12T21:23:50.379Z,7.37
2022-10-12T21:26:19.535Z,7.07
2022-10-12T21:28:47.029Z,7.73
2022-10-12T21:33:47.226Z,7.63
2022-10-12T21:36:16.882Z,7.33
2022-10-12T21:38:44.050Z,7.30
2022-10-12T21:41:13.031Z,6.93
2022-10-12T21:43:41.364Z,7.53
2022-10-12T21:46:16.839Z,7.07
2022-10-12T21:48:43.642Z,7.13
2022-10-12T21:51:10.871Z,7.53
2022-10-12T21:53:38.534Z,6.97
2022-10-12T21:56:19.811Z,7.23
2022-10-12T21:58:47.091Z,7.53
2022-10-12T22:01:16.738Z,7.47
2022-10-12T22:03:44.021Z,6.50
2022-10-12T22:08:53.281Z,6.73
2022-10-12T22:11:20.454Z,7.30
2022-10-12T22:13:47.168Z,6.83
2022-10-12T22:16:16.729Z,7.80
2022-10-12T22:18:43.532Z,6.93
2022-10-12T22:23:47.222Z,6.50
2022-10-12T22:26:17.218Z,7.30
2022-10-12T22:28:43.985Z,6.13
2022-10-12T22:31:12.766Z,7.23
2022-10-12T22:33:39.334Z,6.53
2022-10-12T22:36:07.029Z,7.03
2022-10-12T22:41:09.491Z,7.13
2022-10-12T22:46:07.712Z,7.00
2022-10-12T22:51:07.646Z,6.67
2022-10-12T22:58:48.743Z,7.30
2022-10-12T23:01:16.919Z,6.80
2022-10-12T23:03:43.963Z,6.37
2022-10-12T23:06:12.180Z,6.33
2022-10-12T23:08:38.979Z,6.07
2022-10-12T23:11:08.607Z,6.37
2022-10-12T23:13:36.727Z,6.20
2022-10-12T23:18:37.537Z,6.43
2022-10-12T23:21:09.799Z,5.83
2022-10-12T23:23:37.819Z,6.13
2022-10-12T23:26:07.460Z,6.07
2022-10-12T23:31:07.711Z,7.00
2022-10-12T23:36:12.513Z,6.77
2022-10-12T23:38:40.751Z,6.73
2022-10-12T23:41:07.715Z,6.13
2022-10-12T23:46:07.002Z,6.23
2022-10-12T23:51:07.894Z,6.33
2022-10-12T23:56:06.626Z,5.60
2022-10-12T23:58:33.682Z,5.97
